createdAt,value
2023-04-10T00:00:46.000Z,8.5
2023-04-10T00:01:58.000Z,8.5
2023-04-10T00:03:11.000Z,8.5
2023-04-10T00:04:23.000Z,8.5
2023-04-10T00:05:35.000Z,8.5
2023-04-10T00:06:47.000Z,8.5
2023-04-10T00:07:59.000Z,8.4
2023-04-10T00:09:11.000Z,8.5
2023-04-10T00:10:24.000Z,8.4
2023-04-10T00:11:36.000Z,8.4
2023-04-10T00:12:48.000Z,8.4
2023-04-10T00:13:59.000Z,8.4
2023-04-10T00:15:11.000Z,8.4
2023-04-10T00:16:24.000Z,8.4
2023-04-10T00:17:36.000Z,8.4
2023-04-10T00:18:48.000Z,8.4
2023-04-10T00:20:00.000Z,8.4
2023-04-10T00:21:12.000Z,8.4
2023-04-10T00:22:24.000Z,8.4
2023-04-10T00:23:37.000Z,8.4
2023-04-10T00:24:49.000Z,8.4
2023-04-10T00:26:01.000Z,8.3
2023-04-10T00:27:13.000Z,8.3
2023-04-10T00:28:25.000Z,8.3
2023-04-10T00:29:37.000Z,8.3
2023-04-10T00:30:49.000Z,8.3
2023-04-10T00:32:01.000Z,8.3
2023-04-10T00:33:13.000Z,8.3
2023-04-10T00:34:25.000Z,8.3
2023-04-10T00:35:38.000Z,8.3
2023-04-10T00:36:50.000Z,8.3
2023-04-10T00:38:02.000Z,8.3
2023-04-10T00:39:14.000Z,8.3
2023-04-10T00:40:26.000Z,8.2
2023-04-10T00:41:38.000Z,8.2
2023-04-10T00:42:51.000Z,8.2
2023-04-10T00:44:03.000Z,8.2
2023-04-10T00:45:14.000Z,8.2
2023-04-10T00:46:26.000Z,8.2
2023-04-10T00:47:38.000Z,8.2
2023-04-10T00:48:51.000Z,8.1
2023-04-10T00:50:03.000Z,8.1
2023-04-10T00:51:15.000Z,8.1
2023-04-10T00:52:27.000Z,8.1
2023-04-10T00:53:39.000Z,8.1
2023-04-10T00:54:52.000Z,8.1
2023-04-10T00:56:04.000Z,8.1
2023-04-10T00:57:16.000Z,8.1
2023-04-10T00:58:28.000Z,8.1
2023-04-10T00:59:40.000Z,8.1
2023-04-10T01:00:51.000Z,8
2023-04-10T01:02:04.000Z,8
2023-04-10T01:03:16.000Z,8
2023-04-10T01:04:28.000Z,8
2023-04-10T01:05:40.000Z,8
2023-04-10T01:06:52.000Z,8
2023-04-10T01:08:05.000Z,8
2023-04-10T01:09:17.000Z,8
2023-04-10T01:10:29.000Z,8
2023-04-10T01:11:41.000Z,7.9
2023-04-10T01:12:53.000Z,7.9
2023-04-10T01:14:06.000Z,7.9
2023-04-10T01:15:18.000Z,7.9
2023-04-10T01:16:29.000Z,7.9
2023-04-10T01:17:41.000Z,7.9
2023-04-10T01:18:53.000Z,7.9
2023-04-10T01:20:05.000Z,7.9
2023-04-10T01:21:18.000Z,7.9
2023-04-10T01:22:30.000Z,7.9
2023-04-10T01:23:42.000Z,7.8
2023-04-10T01:24:54.000Z,7.8
2023-04-10T01:26:06.000Z,7.8
2023-04-10T01:27:19.000Z,7.8
2023-04-10T01:28:31.000Z,7.8
2023-04-10T01:29:43.000Z,7.8
2023-04-10T01:30:55.000Z,7.8
2023-04-10T01:32:06.000Z,7.8
2023-04-10T01:33:19.000Z,7.8
2023-04-10T01:34:31.000Z,7.8
2023-04-10T01:35:43.000Z,7.7
2023-04-10T01:36:55.000Z,7.7
2023-04-10T01:38:07.000Z,7.7
2023-04-10T01:39:19.000Z,7.7
2023-04-10T01:40:32.000Z,7.7
2023-04-10T01:41:44.000Z,7.7
2023-04-10T01:42:56.000Z,7.7
2023-04-10T01:44:08.000Z,7.7
2023-04-10T01:45:20.000Z,7.7
2023-04-10T01:46:33.000Z,7.7
2023-04-10T01:47:44.000Z,7.7
2023-04-10T01:48:56.000Z,7.7
2023-04-10T01:50:08.000Z,7.6
2023-04-10T01:51:20.000Z,7.7
2023-04-10T01:52:32.000Z,7.6
2023-04-10T01:53:45.000Z,7.6
2023-04-10T01:54:57.000Z,7.6
2023-04-10T01:56:09.000Z,7.6
2023-04-10T01:57:21.000Z,7.6
2023-04-10T01:58:33.000Z,7.6
2023-04-10T01:59:46.000Z,7.6
2023-04-10T02:00:58.000Z,7.6
2023-04-10T02:02:10.000Z,7.6
2023-04-10T02:03:21.000Z,7.6
2023-04-10T02:04:33.000Z,7.6
2023-04-10T02:05:46.000Z,7.6
2023-04-10T02:06:58.000Z,7.6
2023-04-10T02:08:10.000Z,7.6
2023-04-10T02:09:22.000Z,7.6
2023-04-10T02:10:34.000Z,7.5
2023-04-10T02:11:46.000Z,7.5
2023-04-10T02:12:59.000Z,7.5
2023-04-10T02:14:11.000Z,7.5
2023-04-10T02:15:23.000Z,7.5
2023-04-10T02:16:35.000Z,7.5
2023-04-10T02:18:51.623Z,7.5
2023-04-10T02:18:59.000Z,7.5
2023-04-10T02:20:11.000Z,7.5
2023-04-10T02:21:23.000Z,7.5
2023-04-10T02:22:35.000Z,7.5
2023-04-10T02:23:47.000Z,7.5
2023-04-10T02:25:00.000Z,7.4
2023-04-10T02:26:12.000Z,7.4
2023-04-10T02:27:24.000Z,7.5
2023-04-10T02:28:36.000Z,7.4
2023-04-10T02:29:48.000Z,7.5
2023-04-10T02:31:00.000Z,7.4
2023-04-10T02:32:13.000Z,7.4
2023-04-10T02:33:25.000Z,7.4
2023-04-10T02:34:36.000Z,7.4
2023-04-10T02:35:48.000Z,7.4
2023-04-10T02:37:00.000Z,7.4
2023-04-10T02:38:13.000Z,7.4
2023-04-10T02:39:25.000Z,7.4
2023-04-10T02:40:37.000Z,7.4
2023-04-10T02:41:48.000Z,7.4
2023-04-10T02:43:00.000Z,7.3
2023-04-10T02:44:13.000Z,7.3
2023-04-10T02:45:25.000Z,7.3
2023-04-10T02:46:37.000Z,7.3
2023-04-10T02:48:53.341Z,7.3
2023-04-10T02:49:01.000Z,7.3
2023-04-10T02:50:13.000Z,7.3
2023-04-10T02:51:26.000Z,7.3
2023-04-10T02:52:38.000Z,7.3
2023-04-10T02:53:50.000Z,7.3
2023-04-10T02:56:06.472Z,7.3
2023-04-10T02:56:14.000Z,7.3
2023-04-10T02:57:26.000Z,7.3
2023-04-10T02:58:38.000Z,7.3
2023-04-10T02:59:50.000Z,7.2
2023-04-10T03:01:02.000Z,7.2
2023-04-10T03:02:14.000Z,7.2
2023-04-10T03:03:27.000Z,7.2
2023-04-10T03:04:39.000Z,7.2
2023-04-10T03:05:51.000Z,7.2
2023-04-10T03:07:03.000Z,7.2
2023-04-10T03:08:15.000Z,7.2
2023-04-10T03:09:27.000Z,7.2
2023-04-10T03:10:40.000Z,7.2
2023-04-10T03:11:52.000Z,7.2
2023-04-10T03:13:03.000Z,7.2
2023-04-10T03:14:15.000Z,7.2
2023-04-10T03:15:27.000Z,7.2
2023-04-10T03:16:40.000Z,7.2
2023-04-10T03:17:52.000Z,7.2
2023-04-10T03:19:04.000Z,7.2
2023-04-10T03:20:16.000Z,7.2
2023-04-10T03:21:28.000Z,7.1
2023-04-10T03:22:41.000Z,7.1
2023-04-10T03:23:53.000Z,7.1
2023-04-10T03:25:05.000Z,7.1
2023-04-10T03:26:17.000Z,7.1
2023-04-10T03:27:29.000Z,7.1
2023-04-10T03:29:44.730Z,7.1
2023-04-10T03:29:53.000Z,7.1
2023-04-10T03:31:05.000Z,7.1
2023-04-10T03:32:17.000Z,7.1
2023-04-10T03:33:29.000Z,7.1
2023-04-10T03:34:41.000Z,7.1
2023-04-10T03:35:54.000Z,7.1
2023-04-10T03:37:06.000Z,7
2023-04-10T03:38:18.000Z,7
2023-04-10T03:39:30.000Z,7
2023-04-10T03:40:42.000Z,7
2023-04-10T03:41:55.000Z,7
2023-04-10T03:43:07.000Z,7
2023-04-10T03:44:18.390Z,7
2023-04-10T03:45:30.000Z,7
2023-04-10T03:46:42.000Z,7
2023-04-10T03:47:54.000Z,7
2023-04-10T03:49:07.000Z,7
2023-04-10T03:50:19.000Z,7
2023-04-10T03:51:31.000Z,6.9
2023-04-10T03:52:43.000Z,6.9
2023-04-10T03:53:55.000Z,6.9
2023-04-10T03:55:08.000Z,6.9
2023-04-10T03:56:20.000Z,6.9
2023-04-10T03:57:32.000Z,6.9
2023-04-10T03:58:44.000Z,6.9
2023-04-10T03:59:55.000Z,6.9
2023-04-10T04:01:08.000Z,6.9
2023-04-10T04:02:20.000Z,6.9
2023-04-10T04:03:32.000Z,6.9
2023-04-10T04:04:44.000Z,6.9
2023-04-10T04:05:56.000Z,6.9
2023-04-10T04:07:08.000Z,6.8
2023-04-10T04:08:21.000Z,6.9
2023-04-10T04:09:33.000Z,6.8
2023-04-10T04:10:45.000Z,6.9
2023-04-10T04:11:57.000Z,6.9
2023-04-10T04:13:09.000Z,6.8
2023-04-10T04:15:25.844Z,6.9
2023-04-10T04:15:33.000Z,6.8
2023-04-10T04:16:45.000Z,6.8
2023-04-10T04:17:57.000Z,6.8
2023-04-10T04:19:09.000Z,6.8
2023-04-10T04:20:21.000Z,6.8
2023-04-10T04:21:34.000Z,6.8
2023-04-10T04:22:46.000Z,6.8
2023-04-10T04:25:02.350Z,6.8
2023-04-10T04:25:10.000Z,6.8
2023-04-10T04:26:22.000Z,6.8
2023-04-10T04:27:35.000Z,6.8
2023-04-10T04:28:47.000Z,6.8
2023-04-10T04:29:59.000Z,6.8
2023-04-10T04:31:10.000Z,6.8
2023-04-10T04:32:22.000Z,6.8
2023-04-10T04:33:35.000Z,6.8
2023-04-10T04:34:47.000Z,6.8
2023-04-10T04:35:59.000Z,6.8
2023-04-10T04:37:11.000Z,6.8
2023-04-10T04:38:23.000Z,6.8
2023-04-10T04:39:35.000Z,6.8
2023-04-10T04:40:48.000Z,6.8
2023-04-10T04:42:00.000Z,6.8
2023-04-10T04:43:12.000Z,6.8
2023-04-10T04:44:24.000Z,6.8
2023-04-10T04:45:36.000Z,6.8
2023-04-10T04:46:48.000Z,6.9
2023-04-10T04:48:00.000Z,6.9
2023-04-10T04:49:12.000Z,6.9
2023-04-10T04:50:24.000Z,6.9
2023-04-10T04:51:36.000Z,6.9
2023-04-10T04:52:49.000Z,6.9
2023-04-10T04:54:01.000Z,6.9
2023-04-10T04:55:13.000Z,6.9
2023-04-10T04:56:25.000Z,6.9
2023-04-10T04:57:37.000Z,6.9
2023-04-10T04:58:49.000Z,6.9
2023-04-10T05:00:02.000Z,6.9
2023-04-10T05:01:14.000Z,6.9
2023-04-10T05:02:25.000Z,6.9
2023-04-10T05:03:37.000Z,6.9
2023-04-10T05:04:49.000Z,6.9
2023-04-10T05:06:02.000Z,6.9
2023-04-10T05:07:14.000Z,7
2023-04-10T05:08:26.000Z,7
2023-04-10T05:09:38.000Z,7
2023-04-10T05:10:50.000Z,7
2023-04-10T05:12:03.000Z,7
2023-04-10T05:13:15.000Z,7
2023-04-10T05:14:27.000Z,7
2023-04-10T05:15:39.000Z,7
2023-04-10T05:16:51.000Z,7.1
2023-04-10T05:18:02.000Z,7.1
2023-04-10T05:19:15.000Z,7.1
2023-04-10T05:20:27.000Z,7.1
2023-04-10T05:21:39.000Z,7.1
2023-04-10T05:22:51.000Z,7.1
2023-04-10T05:24:03.000Z,7.2
2023-04-10T05:25:16.000Z,7.2
2023-04-10T05:26:28.000Z,7.2
2023-04-10T05:27:40.000Z,7.2
2023-04-10T05:29:56.492Z,7.2
2023-04-10T05:30:04.000Z,7.2
2023-04-10T05:31:17.000Z,7.2
2023-04-10T05:32:29.000Z,7.2
2023-04-10T05:33:40.000Z,7.2
2023-04-10T05:34:52.000Z,7.3
2023-04-10T05:36:04.000Z,7.3
2023-04-10T05:37:16.000Z,7.3
2023-04-10T05:38:29.000Z,7.3
2023-04-10T05:39:41.000Z,7.3
2023-04-10T05:40:53.000Z,7.4
2023-04-10T05:42:05.000Z,7.4
2023-04-10T05:43:17.000Z,7.4
2023-04-10T05:44:30.000Z,7.4
2023-04-10T05:45:42.000Z,7.4
2023-04-10T05:46:54.000Z,7.5
2023-04-10T05:48:06.000Z,7.5
2023-04-10T05:49:17.000Z,7.5
2023-04-10T05:50:30.000Z,7.5
2023-04-10T05:51:42.000Z,7.5
2023-04-10T05:52:54.000Z,7.6
2023-04-10T05:54:06.000Z,7.6
2023-04-10T05:55:18.000Z,7.6
2023-04-10T05:56:30.000Z,7.7
2023-04-10T05:57:43.000Z,7.7
2023-04-10T05:58:55.000Z,7.8
2023-04-10T06:00:07.000Z,7.9
2023-04-10T06:01:19.000Z,7.9
2023-04-10T06:02:31.000Z,8
2023-04-10T06:03:44.000Z,8
2023-04-10T06:04:55.258Z,8.1
2023-04-10T06:06:07.000Z,8.2
2023-04-10T06:07:19.000Z,8.3
2023-04-10T06:08:31.000Z,8.4
2023-04-10T06:09:44.000Z,8.5
2023-04-10T06:10:56.000Z,8.5
2023-04-10T06:12:08.000Z,8.6
2023-04-10T06:13:20.000Z,8.7
2023-04-10T06:14:32.000Z,8.8
2023-04-10T06:15:44.000Z,8.8
2023-04-10T06:16:57.000Z,8.9
2023-04-10T06:18:09.000Z,8.9
2023-04-10T06:19:21.000Z,9
2023-04-10T06:20:32.000Z,9
2023-04-10T06:21:44.000Z,9.1
2023-04-10T06:22:57.000Z,9.1
2023-04-10T06:24:09.000Z,9.2
2023-04-10T06:25:21.000Z,9.2
2023-04-10T06:26:33.000Z,9.2
2023-04-10T06:27:45.000Z,9.3
2023-04-10T06:28:57.000Z,9.3
2023-04-10T06:30:10.000Z,9.3
2023-04-10T06:31:22.000Z,9.4
2023-04-10T06:32:34.000Z,9.4
2023-04-10T06:33:46.000Z,9.4
2023-04-10T06:34:58.000Z,9.5
2023-04-10T06:36:10.000Z,9.5
2023-04-10T06:37:22.000Z,9.5
2023-04-10T06:38:34.000Z,9.5
2023-04-10T06:39:46.000Z,9.6
2023-04-10T06:40:58.000Z,9.6
2023-04-10T06:42:11.002Z,9.6
2023-04-10T06:43:22.000Z,9.6
2023-04-10T06:44:34.000Z,9.7
2023-04-10T06:45:46.000Z,9.7
2023-04-10T06:46:58.000Z,9.7
2023-04-10T06:48:10.000Z,9.7
2023-04-10T06:49:23.000Z,9.8
2023-04-10T06:50:35.000Z,9.8
2023-04-10T06:51:47.000Z,9.8
2023-04-10T06:52:59.000Z,9.8
2023-04-10T06:54:11.000Z,9.8
2023-04-10T06:55:24.000Z,9.8
2023-04-10T06:56:36.000Z,9.8
2023-04-10T06:57:48.000Z,9.8
2023-04-10T06:58:59.000Z,9.8
2023-04-10T07:00:11.000Z,9.8
2023-04-10T07:01:23.000Z,9.8
2023-04-10T07:02:36.000Z,9.8
2023-04-10T07:03:48.000Z,9.9
2023-04-10T07:05:00.000Z,9.9
2023-04-10T07:06:12.000Z,9.9
2023-04-10T07:07:24.000Z,9.9
2023-04-10T07:08:37.000Z,9.9
2023-04-10T07:09:49.000Z,10
2023-04-10T07:11:01.000Z,10
2023-04-10T07:12:13.000Z,10
2023-04-10T07:13:25.000Z,10
2023-04-10T07:14:37.000Z,10
2023-04-10T07:15:49.000Z,10
2023-04-10T07:17:01.000Z,10
2023-04-10T07:18:13.000Z,10
2023-04-10T07:19:25.000Z,10
2023-04-10T07:20:37.000Z,10.1
2023-04-10T07:21:50.000Z,10.1
2023-04-10T07:23:02.000Z,10.1
2023-04-10T07:24:14.000Z,10.1
2023-04-10T07:25:26.000Z,10.2
2023-04-10T07:26:38.000Z,10.2
2023-04-10T07:27:51.000Z,10.2
2023-04-10T07:29:03.000Z,10.3
2023-04-10T07:30:14.000Z,10.3
2023-04-10T07:31:26.000Z,10.3
2023-04-10T07:32:38.000Z,10.4
2023-04-10T07:33:50.000Z,10.4
2023-04-10T07:35:03.000Z,10.5
2023-04-10T07:36:15.000Z,10.5
2023-04-10T07:37:27.000Z,10.6
2023-04-10T07:38:39.000Z,10.6
2023-04-10T07:39:51.000Z,10.6
2023-04-10T07:41:04.000Z,10.7
2023-04-10T07:42:16.000Z,10.7
2023-04-10T07:44:32.394Z,10.7
2023-04-10T07:44:40.000Z,10.8
2023-04-10T07:45:51.000Z,10.8
2023-04-10T07:47:04.000Z,10.9
2023-04-10T07:48:16.000Z,10.9
2023-04-10T07:49:28.000Z,11
2023-04-10T07:50:40.000Z,11.1
2023-04-10T07:51:52.000Z,11.1
2023-04-10T07:53:04.000Z,11.2
2023-04-10T07:54:17.000Z,11.3
2023-04-10T07:55:29.000Z,11.4
2023-04-10T07:56:41.000Z,11.4
2023-04-10T07:57:53.000Z,11.5
2023-04-10T07:59:05.000Z,11.6
2023-04-10T08:00:18.000Z,11.7
2023-04-10T08:01:29.000Z,11.7
2023-04-10T08:02:41.000Z,11.8
2023-04-10T08:03:53.000Z,11.9
2023-04-10T08:05:05.000Z,12
2023-04-10T08:06:17.000Z,12.1
2023-04-10T08:07:30.000Z,12.1
2023-04-10T08:08:42.000Z,12.2
2023-04-10T08:09:54.000Z,12.3
2023-04-10T08:11:06.000Z,12.4
2023-04-10T08:12:18.000Z,12.5
2023-04-10T08:13:31.000Z,12.5
2023-04-10T08:14:43.000Z,12.6
2023-04-10T08:15:55.000Z,12.7
2023-04-10T08:17:07.000Z,12.7
2023-04-10T08:18:18.000Z,12.8
2023-04-10T08:19:31.000Z,12.8
2023-04-10T08:20:43.000Z,12.9
2023-04-10T08:21:55.000Z,13
2023-04-10T08:23:07.000Z,13
2023-04-10T08:24:19.000Z,13
2023-04-10T08:25:31.000Z,13.1
2023-04-10T08:26:44.000Z,13.1
2023-04-10T08:27:56.000Z,13.2
2023-04-10T08:29:08.000Z,13.2
2023-04-10T08:30:20.000Z,13.2
2023-04-10T08:31:32.000Z,13.2
2023-04-10T08:32:45.000Z,13.3
2023-04-10T08:33:56.000Z,13.3
2023-04-10T08:35:08.000Z,13.3
2023-04-10T08:36:20.000Z,13.3
2023-04-10T08:37:32.000Z,13.3
2023-04-10T08:38:44.000Z,13.3
2023-04-10T08:39:57.000Z,13.4
2023-04-10T08:41:09.000Z,13.4
2023-04-10T08:42:21.000Z,13.4
2023-04-10T08:43:33.000Z,13.4
2023-04-10T08:44:45.000Z,13.5
2023-04-10T08:45:58.000Z,13.5
2023-04-10T08:47:10.000Z,13.5
2023-04-10T08:48:22.000Z,13.5
2023-04-10T08:49:33.000Z,13.5
2023-04-10T08:50:45.000Z,13.5
2023-04-10T08:51:58.000Z,13.6
2023-04-10T08:53:10.000Z,13.6
2023-04-10T08:54:22.000Z,13.6
2023-04-10T08:55:34.000Z,13.7
2023-04-10T08:56:46.000Z,13.7
2023-04-10T08:57:58.000Z,13.7
2023-04-10T08:59:11.000Z,13.8
2023-04-10T09:00:23.000Z,13.8
2023-04-10T09:01:35.000Z,13.9
2023-04-10T09:02:47.000Z,13.9
2023-04-10T09:03:59.000Z,14
2023-04-10T09:05:11.000Z,14
2023-04-10T09:06:23.000Z,14.1
2023-04-10T09:07:35.000Z,14.1
2023-04-10T09:08:47.000Z,14.2
2023-04-10T09:09:59.000Z,14.3
2023-04-10T09:11:11.000Z,14.3
2023-04-10T09:12:24.000Z,14.4
2023-04-10T09:13:36.000Z,14.4
2023-04-10T09:14:48.000Z,14.4
2023-04-10T09:16:00.000Z,14.5
2023-04-10T09:17:12.000Z,14.5
2023-04-10T09:18:25.000Z,14.6
2023-04-10T09:19:37.000Z,14.6
2023-04-10T09:20:48.000Z,14.6
2023-04-10T09:22:00.000Z,14.7
2023-04-10T09:23:12.000Z,14.7
2023-04-10T09:24:25.000Z,14.7
2023-04-10T09:25:37.000Z,14.8
2023-04-10T09:26:49.000Z,14.8
2023-04-10T09:29:05.572Z,14.8
2023-04-10T09:29:13.000Z,14.9
2023-04-10T09:30:25.000Z,14.9
2023-04-10T09:31:38.000Z,14.9
2023-04-10T09:32:50.000Z,14.9
2023-04-10T09:34:02.000Z,14.9
2023-04-10T09:35:14.000Z,14.9
2023-04-10T09:36:25.000Z,15
2023-04-10T09:37:38.000Z,15
2023-04-10T09:38:50.000Z,15.1
2023-04-10T09:40:02.000Z,15.1
2023-04-10T09:41:14.000Z,15.1
2023-04-10T09:42:26.000Z,15.1
2023-04-10T09:43:38.000Z,15.2
2023-04-10T09:44:51.000Z,15.2
2023-04-10T09:46:03.000Z,15.3
2023-04-10T09:47:15.000Z,15.3
2023-04-10T09:48:27.000Z,15.4
2023-04-10T09:49:39.000Z,15.5
2023-04-10T09:50:52.000Z,15.6
2023-04-10T09:52:03.000Z,15.7
2023-04-10T09:53:15.000Z,15.9
2023-04-10T09:54:27.000Z,16
2023-04-10T09:55:39.000Z,16.2
2023-04-10T09:56:52.000Z,16.3
2023-04-10T09:58:04.000Z,16.5
2023-04-10T09:59:16.000Z,16.7
2023-04-10T10:00:28.000Z,16.8
2023-04-10T10:01:40.000Z,17
2023-04-10T10:02:52.000Z,17.2
2023-04-10T10:04:05.000Z,17.3
2023-04-10T10:05:17.000Z,17.4
2023-04-10T10:06:29.000Z,17.6
2023-04-10T10:07:40.000Z,17.7
2023-04-10T10:08:52.000Z,17.8
2023-04-10T10:10:05.000Z,17.8
2023-04-10T10:11:17.000Z,17.9
2023-04-10T10:12:29.000Z,18
2023-04-10T10:13:41.000Z,18.1
2023-04-10T10:14:53.000Z,18.2
2023-04-10T10:16:05.000Z,18.4
2023-04-10T10:17:18.000Z,18.5
2023-04-10T10:18:30.000Z,18.7
2023-04-10T10:19:42.000Z,18.8
2023-04-10T10:20:54.000Z,19
2023-04-10T10:22:06.000Z,19.1
2023-04-10T10:23:19.000Z,19.2
2023-04-10T10:24:30.000Z,19.3
2023-04-10T10:25:42.000Z,19.5
2023-04-10T10:26:54.000Z,19.6
2023-04-10T10:28:06.000Z,19.7
2023-04-10T10:29:19.000Z,19.8
2023-04-10T10:30:31.000Z,20
2023-04-10T10:31:43.000Z,20.1
2023-04-10T10:32:55.000Z,20.2
2023-04-10T10:34:07.000Z,20.3
2023-04-10T10:35:19.000Z,20.3
2023-04-10T10:36:32.000Z,20.5
2023-04-10T10:37:44.000Z,20.6
2023-04-10T10:38:56.000Z,20.7
2023-04-10T10:40:07.000Z,20.9
2023-04-10T10:41:19.000Z,21
2023-04-10T10:42:32.000Z,21.1
2023-04-10T10:43:44.000Z,21.3
2023-04-10T10:44:56.000Z,21.4
2023-04-10T10:46:08.000Z,21.6
2023-04-10T10:47:19.000Z,21.7
2023-04-10T10:48:31.000Z,21.8
2023-04-10T10:49:44.000Z,21.8
2023-04-10T10:50:56.000Z,21.8
2023-04-10T10:52:08.000Z,21.8
2023-04-10T10:53:20.000Z,21.9
2023-04-10T10:54:32.000Z,21.9
2023-04-10T10:55:45.000Z,22
2023-04-10T10:56:57.000Z,22.1
2023-04-10T10:58:09.000Z,22.1
2023-04-10T10:59:21.000Z,22.1
2023-04-10T11:00:33.000Z,22.1
2023-04-10T11:01:46.000Z,22.1
2023-04-10T11:02:57.000Z,22
2023-04-10T11:04:09.000Z,21.9
2023-04-10T11:05:21.000Z,21.9
2023-04-10T11:06:33.000Z,21.8
2023-04-10T11:08:50.022Z,21.6
2023-04-10T11:08:58.000Z,21.5
2023-04-10T11:10:10.000Z,21.3
2023-04-10T11:11:22.000Z,21.1
2023-04-10T11:12:34.000Z,21
2023-04-10T11:13:46.000Z,20.9
2023-04-10T11:14:59.000Z,20.8
2023-04-10T11:16:11.000Z,20.8
2023-04-10T11:17:23.000Z,20.8
2023-04-10T11:18:34.000Z,20.9
2023-04-10T11:19:46.000Z,20.9
2023-04-10T11:20:58.000Z,21
2023-04-10T11:22:11.000Z,21.1
2023-04-10T11:23:23.000Z,21.2
2023-04-10T11:24:35.000Z,21.3
2023-04-10T11:25:47.000Z,21.3
2023-04-10T11:26:59.000Z,21.4
2023-04-10T11:28:12.000Z,21.5
2023-04-10T11:29:24.000Z,21.5
2023-04-10T11:30:36.000Z,21.6
2023-04-10T11:31:48.000Z,21.7
2023-04-10T11:33:00.000Z,21.8
2023-04-10T11:34:12.000Z,21.8
2023-04-10T11:35:24.000Z,21.9
2023-04-10T11:36:36.000Z,22
2023-04-10T11:37:48.000Z,22
2023-04-10T11:39:00.000Z,22.1
2023-04-10T11:40:12.000Z,22.1
2023-04-10T11:41:25.000Z,22.1
2023-04-10T11:42:37.000Z,22
2023-04-10T11:43:49.000Z,22
2023-04-10T11:45:01.000Z,22
2023-04-10T11:46:13.000Z,22.1
2023-04-10T11:47:26.000Z,22
2023-04-10T11:48:38.000Z,22
2023-04-10T11:49:49.000Z,22
2023-04-10T11:51:01.000Z,22
2023-04-10T11:52:13.000Z,21.9
2023-04-10T11:53:25.000Z,21.8
2023-04-10T11:54:38.000Z,21.7
2023-04-10T11:55:50.000Z,21.6
2023-04-10T11:57:02.000Z,21.5
2023-04-10T11:58:14.000Z,21.4
2023-04-10T11:59:26.000Z,21.4
2023-04-10T12:00:39.000Z,21.2
2023-04-10T12:01:51.000Z,21.1
2023-04-10T12:03:03.000Z,21.1
2023-04-10T12:04:15.000Z,21
2023-04-10T12:05:26.000Z,20.9
2023-04-10T12:06:38.000Z,20.8
2023-04-10T12:07:51.000Z,20.7
2023-04-10T12:09:03.000Z,20.5
2023-04-10T12:10:15.000Z,20.4
2023-04-10T12:11:27.000Z,20.2
2023-04-10T12:12:39.000Z,20.1
2023-04-10T12:13:52.000Z,20
2023-04-10T12:15:04.000Z,19.8
2023-04-10T12:16:16.000Z,19.7
2023-04-10T12:17:28.000Z,19.6
2023-04-10T12:18:40.000Z,19.5
2023-04-10T12:20:57.151Z,19.4
2023-04-10T12:21:04.000Z,19.3
2023-04-10T12:22:16.000Z,19.1
2023-04-10T12:23:28.000Z,19.1
2023-04-10T12:24:40.000Z,19
2023-04-10T12:25:52.000Z,18.9
2023-04-10T12:27:05.000Z,18.8
2023-04-10T12:28:17.000Z,18.7
2023-04-10T12:29:29.000Z,18.7
2023-04-10T12:30:41.000Z,18.6
2023-04-10T12:31:53.000Z,18.6
2023-04-10T12:33:06.000Z,18.5
2023-04-10T12:34:18.000Z,18.5
2023-04-10T12:35:30.000Z,18.4
2023-04-10T12:36:42.000Z,18.4
2023-04-10T12:37:53.000Z,18.3
2023-04-10T12:39:05.000Z,18.3
2023-04-10T12:40:18.000Z,18.2
2023-04-10T12:41:30.000Z,18.2
2023-04-10T12:42:42.000Z,18.1
2023-04-10T12:43:54.000Z,18.1
2023-04-10T12:45:06.000Z,18.1
2023-04-10T12:46:19.000Z,18
2023-04-10T12:47:31.000Z,18
2023-04-10T12:48:43.000Z,18
2023-04-10T12:49:55.000Z,18
2023-04-10T12:51:07.000Z,17.9
2023-04-10T12:52:19.000Z,17.9
2023-04-10T12:53:31.000Z,17.9
2023-04-10T12:54:43.000Z,17.8
2023-04-10T12:55:55.000Z,17.8
2023-04-10T12:57:07.000Z,17.7
2023-04-10T12:58:19.000Z,17.7
2023-04-10T12:59:32.000Z,17.6
2023-04-10T13:00:44.000Z,17.6
2023-04-10T13:01:56.000Z,17.6
2023-04-10T13:03:08.000Z,17.5
2023-04-10T13:04:20.000Z,17.5
2023-04-10T13:05:33.000Z,17.4
2023-04-10T13:06:45.000Z,17.4
2023-04-10T13:07:57.000Z,17.4
2023-04-10T13:09:08.000Z,17.3
2023-04-10T13:10:20.000Z,17.3
2023-04-10T13:11:32.000Z,17.3
2023-04-10T13:12:45.000Z,17.2
2023-04-10T13:15:01.500Z,17.2
2023-04-10T13:15:09.000Z,17.2
2023-04-10T13:16:21.000Z,17.1
2023-04-10T13:17:33.000Z,17.1
2023-04-10T13:18:46.000Z,17.1
2023-04-10T13:19:58.000Z,17
2023-04-10T13:21:10.000Z,17
2023-04-10T13:22:22.000Z,17
2023-04-10T13:23:34.000Z,17
2023-04-10T13:24:46.000Z,16.9
2023-04-10T13:25:58.000Z,16.9
2023-04-10T13:27:10.000Z,16.9
2023-04-10T13:28:22.000Z,16.9
2023-04-10T13:29:34.000Z,16.8
2023-04-10T13:30:46.000Z,16.8
2023-04-10T13:31:59.000Z,16.8
2023-04-10T13:33:11.000Z,16.8
2023-04-10T13:34:23.000Z,16.8
2023-04-10T13:35:35.000Z,16.8
2023-04-10T13:36:47.000Z,16.8
2023-04-10T13:38:00.000Z,16.8
2023-04-10T13:39:12.000Z,16.8
2023-04-10T13:40:24.000Z,16.8
2023-04-10T13:41:36.000Z,16.8
2023-04-10T13:42:47.000Z,16.8
2023-04-10T13:43:59.000Z,16.8
2023-04-10T13:45:12.000Z,16.8
2023-04-10T13:46:24.000Z,16.8
2023-04-10T13:47:36.000Z,16.8
2023-04-10T13:48:48.000Z,16.9
2023-04-10T13:50:00.000Z,16.9
2023-04-10T13:51:13.000Z,16.9
2023-04-10T13:52:25.000Z,16.9
2023-04-10T13:53:37.000Z,16.9
2023-04-10T13:54:49.000Z,16.8
2023-04-10T13:56:01.000Z,16.8
2023-04-10T13:57:13.000Z,16.8
2023-04-10T13:58:25.000Z,16.8
2023-04-10T13:59:37.000Z,16.8
2023-04-10T14:00:49.000Z,16.8
2023-04-10T14:02:01.000Z,16.8
2023-04-10T14:03:13.000Z,16.8
2023-04-10T14:04:26.000Z,16.7
2023-04-10T14:05:38.000Z,16.7
2023-04-10T14:06:50.000Z,16.7
2023-04-10T14:08:02.000Z,16.7
2023-04-10T14:09:14.000Z,16.7
2023-04-10T14:10:27.000Z,16.7
2023-04-10T14:11:39.000Z,16.7
2023-04-10T14:12:51.000Z,16.7
2023-04-10T14:14:02.000Z,16.6
2023-04-10T14:15:14.000Z,16.6
2023-04-10T14:16:26.000Z,16.6
2023-04-10T14:17:39.000Z,16.6
2023-04-10T14:18:51.000Z,16.6
2023-04-10T14:20:03.000Z,16.6
2023-04-10T14:21:15.000Z,16.6
2023-04-10T14:22:27.000Z,16.5
2023-04-10T14:23:40.000Z,16.5
2023-04-10T14:25:56.494Z,16.5
2023-04-10T14:26:04.000Z,16.5
2023-04-10T14:27:16.000Z,16.4
2023-04-10T14:28:28.000Z,16.4
2023-04-10T14:29:40.000Z,16.4
2023-04-10T14:30:52.000Z,16.4
2023-04-10T14:32:04.000Z,16.4
2023-04-10T14:33:16.000Z,16.4
2023-04-10T14:34:28.000Z,16.4
2023-04-10T14:35:40.000Z,16.4
2023-04-10T14:36:53.000Z,16.4
2023-04-10T14:38:05.000Z,16.4
2023-04-10T14:39:17.000Z,16.4
2023-04-10T14:40:29.000Z,16.4
2023-04-10T14:41:41.000Z,16.4
2023-04-10T14:42:54.000Z,16.3
2023-04-10T14:44:06.000Z,16.3
2023-04-10T14:45:17.000Z,16.3
2023-04-10T14:46:29.000Z,16.3
2023-04-10T14:47:41.000Z,16.3
2023-04-10T14:48:52.000Z,16.3
2023-04-10T14:50:05.000Z,16.3
2023-04-10T14:51:17.000Z,16.3
2023-04-10T14:52:29.000Z,16.3
2023-04-10T14:53:41.000Z,16.3
2023-04-10T14:54:53.000Z,16.3
2023-04-10T14:56:06.000Z,16.3
2023-04-10T14:57:18.000Z,16.3
2023-04-10T14:58:30.000Z,16.3
2023-04-10T14:59:42.000Z,16.3
2023-04-10T15:00:54.000Z,16.3
2023-04-10T15:02:07.000Z,16.3
2023-04-10T15:03:19.000Z,16.3
2023-04-10T15:04:30.000Z,16.3
2023-04-10T15:05:42.000Z,16.3
2023-04-10T15:06:54.000Z,16.3
2023-04-10T15:08:06.000Z,16.3
2023-04-10T15:09:19.000Z,16.3
2023-04-10T15:10:31.000Z,16.3
2023-04-10T15:11:43.000Z,16.3
2023-04-10T15:12:55.000Z,16.3
2023-04-10T15:14:07.000Z,16.3
2023-04-10T15:15:20.000Z,16.3
2023-04-10T15:16:32.000Z,16.3
2023-04-10T15:17:44.000Z,16.3
2023-04-10T15:18:56.000Z,16.3
2023-04-10T15:20:07.000Z,16.3
2023-04-10T15:21:19.000Z,16.3
2023-04-10T15:22:32.000Z,16.3
2023-04-10T15:23:44.000Z,16.3
2023-04-10T15:24:56.000Z,16.3
2023-04-10T15:26:08.000Z,16.3
2023-04-10T15:27:20.000Z,16.3
2023-04-10T15:28:33.000Z,16.3
2023-04-10T15:29:45.000Z,16.2
2023-04-10T15:30:57.000Z,16.2
2023-04-10T15:32:09.000Z,16.2
2023-04-10T15:33:21.000Z,16.2
2023-04-10T15:34:34.000Z,16.2
2023-04-10T15:35:45.000Z,16.2
2023-04-10T15:36:57.000Z,16.2
2023-04-10T15:38:09.000Z,16.1
2023-04-10T15:39:21.000Z,16.1
2023-04-10T15:40:33.000Z,16.1
2023-04-10T15:41:46.000Z,16.1
2023-04-10T15:42:58.000Z,16.1
2023-04-10T15:44:10.000Z,16
2023-04-10T15:45:22.000Z,16
2023-04-10T15:46:34.000Z,16
2023-04-10T15:47:47.000Z,16
2023-04-10T15:48:59.000Z,16
2023-04-10T15:50:11.000Z,16
2023-04-10T15:51:22.000Z,15.9
2023-04-10T15:52:34.000Z,15.9
2023-04-10T15:53:47.000Z,15.9
2023-04-10T15:54:59.000Z,15.9
2023-04-10T15:56:11.000Z,15.9
2023-04-10T15:58:27.861Z,15.9
2023-04-10T15:58:35.000Z,15.9
2023-04-10T16:00:52.237Z,15.8
2023-04-10T16:01:00.000Z,15.8
2023-04-10T16:02:12.000Z,15.8
2023-04-10T16:03:24.000Z,15.8
2023-04-10T16:04:36.000Z,15.8
2023-04-10T16:05:48.000Z,15.8
2023-04-10T16:07:01.000Z,15.8
2023-04-10T16:08:13.000Z,15.7
2023-04-10T16:09:24.000Z,15.7
2023-04-10T16:10:36.000Z,15.7
2023-04-10T16:11:48.000Z,15.7
2023-04-10T16:13:00.000Z,15.7
2023-04-10T16:14:13.000Z,15.7
2023-04-10T16:15:25.000Z,15.7
2023-04-10T16:16:37.000Z,15.7
2023-04-10T16:17:49.000Z,15.7
2023-04-10T16:19:01.000Z,15.6
2023-04-10T16:20:14.000Z,15.6
2023-04-10T16:21:26.000Z,15.6